createdAt,value
2023-02-01T00:03:09.862Z,88.76
2023-02-01T00:08:13.168Z,89.07
2023-02-01T00:13:16.546Z,89.20
2023-02-01T00:18:19.895Z,89.25
2023-02-01T00:23:23.311Z,89.27
2023-02-01T00:28:26.414Z,89.38
2023-02-01T00:33:30.658Z,89.41
2023-02-01T00:38:35.819Z,89.20
2023-02-01T00:43:39.934Z,89.26
2023-02-01T00:48:43.053Z,89.60
2023-02-01T00:53:46.654Z,90.02
2023-02-01T00:58:49.756Z,89.98
2023-02-01T01:03:56.650Z,89.28
2023-02-01T01:09:02.119Z,89.24
2023-02-01T01:14:08.472Z,88.99
2023-02-01T01:19:11.598Z,89.19
2023-02-01T01:24:14.809Z,89.57
2023-02-01T01:29:17.814Z,90.03
2023-02-01T01:34:21.022Z,90.01
2023-02-01T01:39:24.121Z,90.01
2023-02-01T01:44:55.393Z,90.11
2023-02-01T01:49:58.810Z,90.21
2023-02-01T01:55:02.011Z,90.34
2023-02-01T02:00:12.362Z,90.23
2023-02-01T02:05:18.358Z,89.98
2023-02-01T02:10:22.593Z,89.78
2023-02-01T02:15:26.517Z,89.63
2023-02-01T02:20:35.867Z,89.69
2023-02-01T02:26:17.015Z,88.74
2023-02-01T02:31:42.476Z,89.45
2023-02-01T02:37:13.352Z,89.73
2023-02-01T02:42:41.448Z,89.62
2023-02-01T02:48:17.928Z,89.43
2023-02-01T02:54:01.896Z,89.15
2023-02-01T02:59:24.559Z,89.47
2023-02-01T03:04:27.874Z,89.62
2023-02-01T03:09:38.017Z,89.77
2023-02-01T03:14:46.064Z,89.86
2023-02-01T03:19:53.269Z,90.31
2023-02-01T03:25:00.786Z,90.56
2023-02-01T03:30:20.308Z,90.66
2023-02-01T03:35:34.844Z,90.64
2023-02-01T03:40:41.112Z,90.50
2023-02-01T03:45:52.322Z,90.42
2023-02-01T03:50:59.617Z,90.38
2023-02-01T03:56:03.742Z,90.46
2023-02-01T04:01:06.813Z,90.05
2023-02-01T04:06:09.955Z,89.42
2023-02-01T04:11:13.058Z,89.43
2023-02-01T04:16:16.817Z,89.69
2023-02-01T04:21:20.193Z,89.43
2023-02-01T04:26:23.115Z,89.91
2023-02-01T04:31:26.804Z,89.90
2023-02-01T04:36:30.125Z,90.07
2023-02-01T04:41:33.230Z,90.19
2023-02-01T04:46:36.234Z,90.16
2023-02-01T04:51:39.952Z,89.80
2023-02-01T04:56:43.073Z,90.05
2023-02-01T05:01:48.629Z,90.21
2023-02-01T05:06:52.150Z,90.18
2023-02-01T05:12:13.876Z,90.13
2023-02-01T05:17:17.194Z,90.50
2023-02-01T05:22:20.499Z,90.64
2023-02-01T05:27:23.707Z,90.84
2023-02-01T05:32:27.027Z,90.88
2023-02-01T05:37:30.124Z,90.35
2023-02-01T05:42:33.238Z,90.28
2023-02-01T05:47:36.236Z,90.37
2023-02-01T05:52:39.232Z,90.18
2023-02-01T05:57:42.343Z,90.39
2023-02-01T06:02:45.597Z,90.39
2023-02-01T06:07:50.806Z,90.30
2023-02-01T06:12:54.120Z,90.42
2023-02-01T06:17:57.545Z,90.14
2023-02-01T06:23:01.039Z,89.43
2023-02-01T06:28:06.814Z,89.71
2023-02-01T06:33:10.116Z,90.07
2023-02-01T06:38:13.130Z,90.02
2023-02-01T06:43:16.329Z,90.14
2023-02-01T06:48:20.361Z,89.94
2023-02-01T06:53:23.983Z,89.67
2023-02-01T06:58:33.232Z,89.62
2023-02-01T07:03:37.154Z,89.77
2023-02-01T07:08:40.353Z,89.68
2023-02-01T07:13:43.460Z,89.93
2023-02-01T07:18:47.903Z,89.68
2023-02-01T07:23:51.206Z,89.65
2023-02-01T07:28:54.416Z,89.72
2023-02-01T07:33:58.851Z,90.00
2023-02-01T07:39:01.962Z,89.98
2023-02-01T07:44:05.280Z,90.00
2023-02-01T07:49:08.375Z,90.01
2023-02-01T07:54:11.587Z,89.98
2023-02-01T07:59:14.584Z,89.67
2023-02-01T08:04:18.322Z,89.59
2023-02-01T08:09:21.412Z,89.80
2023-02-01T08:14:24.757Z,89.64
2023-02-01T08:19:27.829Z,89.48
2023-02-01T08:24:31.255Z,89.33
2023-02-01T08:29:34.262Z,89.47
2023-02-01T08:34:37.451Z,89.23
2023-02-01T08:39:40.453Z,89.26
2023-02-01T08:44:43.463Z,89.34
2023-02-01T08:49:47.587Z,89.39
2023-02-01T08:54:50.896Z,89.28
2023-02-01T08:59:55.435Z,89.09
2023-02-01T09:05:00.638Z,89.02
2023-02-01T09:10:05.673Z,88.79
2023-02-01T09:15:10.738Z,88.42
2023-02-01T09:20:14.423Z,88.11
2023-02-01T09:25:18.912Z,87.70
2023-02-01T09:30:23.129Z,87.15
2023-02-01T09:35:26.899Z,87.11
2023-02-01T09:40:30.238Z,86.62
2023-02-01T09:46:11.240Z,86.20
2023-02-01T09:51:27.009Z,85.48
2023-02-01T09:57:05.503Z,85.32
2023-02-01T10:02:39.939Z,85.56
2023-02-01T10:08:06.029Z,85.99
2023-02-01T10:13:15.484Z,86.16
2023-02-01T10:18:33.041Z,85.20
2023-02-01T10:24:01.181Z,84.28
2023-02-01T10:29:20.096Z,81.37
2023-02-01T10:34:28.448Z,79.72
2023-02-01T10:39:31.628Z,80.89
2023-02-01T10:44:46.714Z,82.06
2023-02-01T10:49:59.040Z,82.17
2023-02-01T10:55:41.615Z,82.09
2023-02-01T11:00:46.614Z,82.99
2023-02-01T11:05:50.752Z,82.52
2023-02-01T11:11:03.993Z,83.09
2023-02-01T11:16:12.229Z,82.28
2023-02-01T11:21:15.833Z,81.88
2023-02-01T11:26:26.059Z,82.17
2023-02-01T11:31:31.127Z,81.85
2023-02-01T11:36:37.007Z,82.28
2023-02-01T11:41:43.310Z,82.57
2023-02-01T11:46:46.442Z,82.95
2023-02-01T11:52:12.893Z,82.92
2023-02-01T11:57:34.171Z,83.07
2023-02-01T12:03:00.676Z,82.99
2023-02-01T12:08:16.771Z,83.20
2023-02-01T12:13:22.326Z,83.73
2023-02-01T12:18:31.732Z,84.28
2023-02-01T12:24:01.609Z,84.84
2023-02-01T12:29:21.202Z,85.38
2023-02-01T12:34:43.044Z,86.24
2023-02-01T12:39:55.059Z,86.20
2023-02-01T12:45:06.775Z,86.35
2023-02-01T12:50:27.236Z,86.55
2023-02-01T12:55:39.814Z,86.86
2023-02-01T13:00:55.992Z,87.17
2023-02-01T13:06:23.302Z,87.24
2023-02-01T13:11:32.239Z,87.16
2023-02-01T13:16:41.819Z,87.56
2023-02-01T13:21:51.451Z,87.73
2023-02-01T13:26:56.706Z,87.45
2023-02-01T13:33:50.594Z,87.59
2023-02-01T13:38:22.231Z,87.59
2023-02-01T13:43:30.227Z,87.81
2023-02-01T13:49:01.345Z,88.09
2023-02-01T13:54:07.024Z,88.27
2023-02-01T13:59:38.401Z,88.75
2023-02-01T14:04:49.868Z,88.71
2023-02-01T14:09:54.786Z,88.56
2023-02-01T14:15:19.879Z,88.76
2023-02-01T14:20:47.284Z,88.82
2023-02-01T14:26:04.991Z,88.32
2023-02-01T14:31:38.972Z,88.78
2023-02-01T14:36:53.388Z,88.93
2023-02-01T14:42:02.446Z,88.88
2023-02-01T14:47:09.793Z,88.97
2023-02-01T14:52:18.071Z,88.90
2023-02-01T14:57:26.506Z,88.97
2023-02-01T15:02:33.110Z,89.19
2023-02-01T15:07:37.106Z,89.25
2023-02-01T15:12:46.045Z,89.02
2023-02-01T15:18:18.545Z,88.70
2023-02-01T15:23:22.629Z,88.82
2023-02-01T15:28:28.284Z,88.91
2023-02-01T15:33:33.340Z,88.84
2023-02-01T15:38:40.608Z,88.70
2023-02-01T15:43:53.077Z,88.43
2023-02-01T15:48:57.962Z,88.50
2023-02-01T15:54:11.620Z,88.07
2023-02-01T15:59:21.302Z,88.16
2023-02-01T16:04:28.168Z,88.13
2023-02-01T16:10:00.771Z,88.44
2023-02-01T16:15:12.111Z,88.42
2023-02-01T16:20:20.835Z,88.41
2023-02-01T16:25:26.982Z,88.94
2023-02-01T16:30:42.633Z,88.94
2023-02-01T16:35:47.041Z,89.21
2023-02-01T16:40:51.329Z,89.09
2023-02-01T16:45:56.978Z,89.05
2023-02-01T16:51:06.056Z,89.15
2023-02-01T16:56:22.191Z,89.42
2023-02-01T17:01:26.141Z,89.47
2023-02-01T17:06:30.532Z,89.98
2023-02-01T17:11:34.255Z,90.52
2023-02-01T17:16:38.413Z,90.51
2023-02-01T17:21:53.440Z,90.08
2023-02-01T17:26:59.158Z,90.04
2023-02-01T17:32:06.248Z,90.21
2023-02-01T17:37:26.137Z,90.45
2023-02-01T17:42:30.876Z,90.70
2023-02-01T17:47:34.625Z,90.56
2023-02-01T17:52:38.015Z,90.30
2023-02-01T17:57:41.488Z,90.46
2023-02-01T18:02:45.543Z,90.65
2023-02-01T18:07:49.065Z,90.71
2023-02-01T18:12:52.368Z,90.50
2023-02-01T18:17:56.543Z,89.93
2023-02-01T18:23:00.121Z,89.77
2023-02-01T18:28:04.865Z,89.59
2023-02-01T18:33:12.628Z,89.59
2023-02-01T18:38:16.190Z,89.49
2023-02-01T18:43:20.975Z,89.35
2023-02-01T18:48:24.550Z,89.26
2023-02-01T18:53:28.071Z,89.28
2023-02-01T18:58:32.301Z,89.36
2023-02-01T19:03:40.560Z,89.66
2023-02-01T19:08:52.831Z,89.99
2023-02-01T19:13:56.469Z,90.33
2023-02-01T19:19:00.313Z,90.43
2023-02-01T19:24:05.241Z,90.39
2023-02-01T19:29:08.645Z,90.45
2023-02-01T19:34:11.754Z,90.59
2023-02-01T19:39:15.164Z,90.71
2023-02-01T19:44:18.891Z,90.88
2023-02-01T19:49:22.957Z,90.82
2023-02-01T19:54:26.835Z,90.93
2023-02-01T19:59:30.457Z,91.06
2023-02-01T20:04:34.555Z,91.32
2023-02-01T20:09:41.542Z,91.37
2023-02-01T20:14:44.650Z,91.45
2023-02-01T20:19:47.985Z,91.50
2023-02-01T20:24:51.393Z,91.45
2023-02-01T20:29:55.556Z,91.45
2023-02-01T20:34:58.557Z,91.41
2023-02-01T20:40:01.973Z,91.21
2023-02-01T20:45:09.288Z,91.08
2023-02-01T20:50:16.183Z,91.16
2023-02-01T20:55:20.414Z,91.32
2023-02-01T21:00:24.950Z,91.44
2023-02-01T21:05:42.093Z,91.37
2023-02-01T21:11:16.802Z,91.19
2023-02-01T21:16:23.736Z,91.39
2023-02-01T21:21:27.156Z,91.46
2023-02-01T21:26:41.654Z,91.10
2023-02-01T21:31:45.105Z,91.30
2023-02-01T21:36:48.564Z,91.31
2023-02-01T21:42:10.708Z,91.30
2023-02-01T21:47:17.866Z,91.60
2023-02-01T21:52:22.568Z,91.58
2023-02-01T21:57:28.008Z,91.60
2023-02-01T22:02:32.286Z,91.68
2023-02-01T22:07:36.532Z,91.71
2023-02-01T22:12:40.316Z,91.87
2023-02-01T22:17:43.911Z,92.02
2023-02-01T22:22:48.710Z,92.19
2023-02-01T22:28:30.722Z,92.38
2023-02-01T22:33:16.272Z,92.25
2023-02-01T22:38:20.003Z,92.24
2023-02-01T22:43:23.702Z,92.34
2023-02-01T22:48:27.494Z,92.40
2023-02-01T22:53:31.285Z,92.27
2023-02-01T22:58:37.716Z,92.39
2023-02-01T23:03:41.103Z,92.28
2023-02-01T23:08:44.939Z,92.30
2023-02-01T23:13:48.356Z,92.17
2023-02-01T23:18:51.662Z,92.08
2023-02-01T23:23:59.270Z,91.88
2023-02-01T23:29:03.609Z,92.09
2023-02-01T23:34:06.713Z,92.21
2023-02-01T23:39:09.919Z,92.24
2023-02-01T23:44:13.230Z,92.24
2023-02-01T23:49:17.899Z,92.29
2023-02-01T23:54:22.808Z,92.40
2023-02-01T23:59:32.812Z,92.45
